sensor_id;sensor_type;location;lat;lon;timestamp;P1;durP1;ratioP1;P2;durP2;ratioP2
65156;SDS011;52745;49.794;18.258;2022-08-21T00:01:11;18.73;;;13.82;;
65156;SDS011;52745;49.794;18.258;2022-08-21T00:03:41;19.88;;;13.48;;
65156;SDS011;52745;49.794;18.258;2022-08-21T00:06:08;18.33;;;12.50;;
65156;SDS011;52745;49.794;18.258;2022-08-21T00:08:34;20.10;;;13.23;;
65156;SDS011;52745;49.794;18.258;2022-08-21T00:11:03;19.80;;;11.60;;
65156;SDS011;52745;49.794;18.258;2022-08-21T00:13:30;16.23;;;10.80;;
65156;SDS011;52745;49.794;18.258;2022-08-21T00:15:56;12.85;;;9.57;;
65156;SDS011;52745;49.794;18.258;2022-08-21T00:18:24;18.20;;;9.50;;
65156;SDS011;52745;49.794;18.258;2022-08-21T00:20:51;12.05;;;9.35;;
65156;SDS011;52745;49.794;18.258;2022-08-21T00:23:18;14.90;;;10.00;;
65156;SDS011;52745;49.794;18.258;2022-08-21T00:25:45;15.73;;;10.10;;
65156;SDS011;52745;49.794;18.258;2022-08-21T00:28:12;18.40;;;10.88;;
65156;SDS011;52745;49.794;18.258;2022-08-21T00:30:39;17.77;;;11.38;;
65156;SDS011;52745;49.794;18.258;2022-08-21T00:33:07;15.07;;;10.75;;
65156;SDS011;52745;49.794;18.258;2022-08-21T00:35:36;16.27;;;12.05;;
65156;SDS011;52745;49.794;18.258;2022-08-21T00:38:04;21.83;;;14.45;;
65156;SDS011;52745;49.794;18.258;2022-08-21T00:40:34;21.55;;;14.15;;
65156;SDS011;52745;49.794;18.258;2022-08-21T00:43:04;19.80;;;14.07;;
65156;SDS011;52745;49.794;18.258;2022-08-21T00:45:32;21.70;;;14.13;;
65156;SDS011;52745;49.794;18.258;2022-08-21T00:47:59;24.75;;;14.27;;
65156;SDS011;52745;49.794;18.258;2022-08-21T00:50:28;24.23;;;13.35;;
65156;SDS011;52745;49.794;18.258;2022-08-21T00:52:58;22.30;;;15.18;;
65156;SDS011;52745;49.794;18.258;2022-08-21T00:55:26;25.15;;;15.07;;
65156;SDS011;52745;49.794;18.258;2022-08-21T00:57:55;22.95;;;14.23;;
65156;SDS011;52745;49.794;18.258;2022-08-21T01:00:27;23.83;;;14.15;;
65156;SDS011;52745;49.794;18.258;2022-08-21T01:02:56;21.27;;;14.75;;
65156;SDS011;52745;49.794;18.258;2022-08-21T01:05:24;22.63;;;14.40;;
65156;SDS011;52745;49.794;18.258;2022-08-21T01:07:53;20.23;;;13.43;;
65156;SDS011;52745;49.794;18.258;2022-08-21T01:10:23;20.15;;;13.30;;
65156;SDS011;52745;49.794;18.258;2022-08-21T01:12:51;19.92;;;13.38;;
65156;SDS011;52745;49.794;18.258;2022-08-21T01:15:21;22.05;;;13.60;;
65156;SDS011;52745;49.794;18.258;2022-08-21T01:17:49;19.60;;;14.18;;
65156;SDS011;52745;49.794;18.258;2022-08-21T01:20:17;21.73;;;14.18;;
65156;SDS011;52745;49.794;18.258;2022-08-21T01:22:43;21.38;;;14.77;;
65156;SDS011;52745;49.794;18.258;2022-08-21T01:25:13;19.88;;;13.70;;
65156;SDS011;52745;49.794;18.258;2022-08-21T01:27:41;21.73;;;13.60;;
65156;SDS011;52745;49.794;18.258;2022-08-21T01:30:19;19.20;;;13.05;;
65156;SDS011;52745;49.794;18.258;2022-08-21T01:32:49;19.33;;;12.93;;
65156;SDS011;52745;49.794;18.258;2022-08-21T01:35:17;21.13;;;13.20;;
65156;SDS011;52745;49.794;18.258;2022-08-21T01:37:45;19.30;;;13.00;;
65156;SDS011;52745;49.794;18.258;2022-08-21T01:40:13;16.23;;;11.38;;
65156;SDS011;52745;49.794;18.258;2022-08-21T01:42:42;15.77;;;10.77;;
65156;SDS011;52745;49.794;18.258;2022-08-21T01:45:09;14.65;;;9.77;;
65156;SDS011;52745;49.794;18.258;2022-08-21T01:47:36;16.60;;;10.45;;
65156;SDS011;52745;49.794;18.258;2022-08-21T01:50:09;16.60;;;10.45;;
65156;SDS011;52745;49.794;18.258;2022-08-21T01:52:37;13.90;;;9.55;;
65156;SDS011;52745;49.794;18.258;2022-08-21T01:55:05;11.90;;;8.55;;
65156;SDS011;52745;49.794;18.258;2022-08-21T01:57:32;11.98;;;8.70;;
65156;SDS011;52745;49.794;18.258;2022-08-21T01:59:59;13.65;;;8.35;;
65156;SDS011;52745;49.794;18.258;2022-08-21T02:02:26;12.60;;;8.82;;
65156;SDS011;52745;49.794;18.258;2022-08-21T02:04:53;11.00;;;7.25;;
65156;SDS011;52745;49.794;18.258;2022-08-21T02:07:19;11.80;;;7.80;;
65156;SDS011;52745;49.794;18.258;2022-08-21T02:09:46;10.90;;;7.30;;
65156;SDS011;52745;49.794;18.258;2022-08-21T02:12:12;12.82;;;8.10;;
65156;SDS011;52745;49.794;18.258;2022-08-21T02:14:39;11.35;;;8.02;;
65156;SDS011;52745;49.794;18.258;2022-08-21T02:17:05;12.23;;;7.97;;
65156;SDS011;52745;49.794;18.258;2022-08-21T02:19:32;16.23;;;9.30;;
65156;SDS011;52745;49.794;18.258;2022-08-21T02:21:58;16.52;;;10.00;;
65156;SDS011;52745;49.794;18.258;2022-08-21T02:24:25;19.38;;;12.85;;
65156;SDS011;52745;49.794;18.258;2022-08-21T02:26:51;20.70;;;13.35;;
65156;SDS011;52745;49.794;18.258;2022-08-21T02:29:18;22.88;;;13.60;;
65156;SDS011;52745;49.794;18.258;2022-08-21T02:31:44;65.97;;;43.75;;
65156;SDS011;52745;49.794;18.258;2022-08-21T02:34:10;31.40;;;21.08;;
65156;SDS011;52745;49.794;18.258;2022-08-21T02:36:37;42.20;;;23.50;;
65156;SDS011;52745;49.794;18.258;2022-08-21T02:39:03;22.45;;;14.23;;
65156;SDS011;52745;49.794;18.258;2022-08-21T02:41:30;35.00;;;21.35;;
65156;SDS011;52745;49.794;18.258;2022-08-21T02:43:57;42.63;;;27.77;;
65156;SDS011;52745;49.794;18.258;2022-08-21T02:46:24;19.25;;;13.95;;
65156;SDS011;52745;49.794;18.258;2022-08-21T02:48:50;20.75;;;13.93;;
65156;SDS011;52745;49.794;18.258;2022-08-21T02:51:18;23.00;;;13.98;;
65156;SDS011;52745;49.794;18.258;2022-08-21T02:53:46;23.30;;;14.27;;
65156;SDS011;52745;49.794;18.258;2022-08-21T02:56:15;21.98;;;14.50;;
65156;SDS011;52745;49.794;18.258;2022-08-21T02:58:45;20.73;;;13.65;;
65156;SDS011;52745;49.794;18.258;2022-08-21T03:01:15;23.58;;;14.57;;
65156;SDS011;52745;49.794;18.258;2022-08-21T03:03:42;22.60;;;12.90;;
65156;SDS011;52745;49.794;18.258;2022-08-21T03:06:12;17.65;;;12.20;;
65156;SDS011;52745;49.794;18.258;2022-08-21T03:08:39;22.95;;;13.10;;
65156;SDS011;52745;49.794;18.258;2022-08-21T03:11:06;19.25;;;12.60;;
65156;SDS011;52745;49.794;18.258;2022-08-21T03:13:33;21.33;;;13.00;;
65156;SDS011;52745;49.794;18.258;2022-08-21T03:15:59;41.50;;;25.35;;
65156;SDS011;52745;49.794;18.258;2022-08-21T03:18:26;34.65;;;23.13;;
65156;SDS011;52745;49.794;18.258;2022-08-21T03:20:52;21.85;;;13.02;;
65156;SDS011;52745;49.794;18.258;2022-08-21T03:23:19;24.45;;;12.35;;
65156;SDS011;52745;49.794;18.258;2022-08-21T03:25:46;21.05;;;13.05;;
65156;SDS011;52745;49.794;18.258;2022-08-21T03:28:15;19.58;;;11.77;;
65156;SDS011;52745;49.794;18.258;2022-08-21T03:30:46;16.75;;;10.13;;
65156;SDS011;52745;49.794;18.258;2022-08-21T03:33:14;17.55;;;10.20;;
65156;SDS011;52745;49.794;18.258;2022-08-21T03:35:43;15.13;;;9.68;;
65156;SDS011;52745;49.794;18.258;2022-08-21T03:38:12;15.23;;;7.95;;
65156;SDS011;52745;49.794;18.258;2022-08-21T03:40:40;11.27;;;6.43;;
65156;SDS011;52745;49.794;18.258;2022-08-21T03:43:07;11.38;;;7.28;;
65156;SDS011;52745;49.794;18.258;2022-08-21T03:45:35;15.00;;;7.85;;
65156;SDS011;52745;49.794;18.258;2022-08-21T03:48:02;7.00;;;2.83;;
65156;SDS011;52745;49.794;18.258;2022-08-21T03:50:33;4.82;;;2.20;;
65156;SDS011;52745;49.794;18.258;2022-08-21T03:53:01;5.65;;;2.00;;
65156;SDS011;52745;49.794;18.258;2022-08-21T03:55:27;5.55;;;2.35;;
65156;SDS011;52745;49.794;18.258;2022-08-21T03:57:54;5.70;;;2.13;;
65156;SDS011;52745;49.794;18.258;2022-08-21T04:00:22;4.97;;;1.73;;
65156;SDS011;52745;49.794;18.258;2022-08-21T04:02:49;3.30;;;1.40;;
65156;SDS011;52745;49.794;18.258;2022-08-21T04:05:17;1.90;;;1.27;;
65156;SDS011;52745;49.794;18.258;2022-08-21T04:07:53;2.53;;;1.70;;
65156;SDS011;52745;49.794;18.258;2022-08-21T04:10:21;3.47;;;1.42;;
65156;SDS011;52745;49.794;18.258;2022-08-21T04:12:50;1.83;;;1.35;;
65156;SDS011;52745;49.794;18.258;2022-08-21T04:15:18;5.63;;;1.50;;
65156;SDS011;52745;49.794;18.258;2022-08-21T04:17:45;2.13;;;1.42;;
65156;SDS011;52745;49.794;18.258;2022-08-21T04:20:11;7.18;;;1.40;;
65156;SDS011;52745;49.794;18.258;2022-08-21T04:22:38;5.60;;;1.58;;
65156;SDS011;52745;49.794;18.258;2022-08-21T04:25:05;2.50;;;1.30;;
65156;SDS011;52745;49.794;18.258;2022-08-21T04:27:33;10.30;;;5.80;;
65156;SDS011;52745;49.794;18.258;2022-08-21T04:30:00;10.55;;;7.20;;
65156;SDS011;52745;49.794;18.258;2022-08-21T04:32:27;4.32;;;1.75;;
65156;SDS011;52745;49.794;18.258;2022-08-21T04:35:00;4.88;;;1.25;;
65156;SDS011;52745;49.794;18.258;2022-08-21T04:37:30;3.60;;;1.17;;
65156;SDS011;52745;49.794;18.258;2022-08-21T04:39:57;3.45;;;1.00;;
65156;SDS011;52745;49.794;18.258;2022-08-21T04:42:24;3.75;;;1.13;;
65156;SDS011;52745;49.794;18.258;2022-08-21T04:44:52;2.15;;;1.10;;
65156;SDS011;52745;49.794;18.258;2022-08-21T04:47:18;3.25;;;1.13;;
65156;SDS011;52745;49.794;18.258;2022-08-21T04:49:45;2.55;;;1.08;;
65156;SDS011;52745;49.794;18.258;2022-08-21T04:52:13;2.40;;;1.13;;
65156;SDS011;52745;49.794;18.258;2022-08-21T04:54:43;18.20;;;9.90;;
65156;SDS011;52745;49.794;18.258;2022-08-21T04:57:11;4.32;;;2.17;;
65156;SDS011;52745;49.794;18.258;2022-08-21T04:59:40;2.88;;;1.30;;
65156;SDS011;52745;49.794;18.258;2022-08-21T05:02:14;1.58;;;1.00;;
65156;SDS011;52745;49.794;18.258;2022-08-21T05:04:42;2.30;;;0.98;;
65156;SDS011;52745;49.794;18.258;2022-08-21T05:07:14;1.00;;;0.70;;
65156;SDS011;52745;49.794;18.258;2022-08-21T05:09:44;1.10;;;0.90;;
65156;SDS011;52745;49.794;18.258;2022-08-21T05:12:11;3.00;;;0.85;;
65156;SDS011;52745;49.794;18.258;2022-08-21T05:14:38;34.80;;;22.63;;
65156;SDS011;52745;49.794;18.258;2022-08-21T05:17:04;11.98;;;7.90;;
65156;SDS011;52745;49.794;18.258;2022-08-21T05:19:31;4.40;;;0.85;;
65156;SDS011;52745;49.794;18.258;2022-08-21T05:21:57;5.68;;;0.90;;
65156;SDS011;52745;49.794;18.258;2022-08-21T05:24:24;8.45;;;3.78;;
65156;SDS011;52745;49.794;18.258;2022-08-21T05:26:50;3.97;;;2.78;;
65156;SDS011;52745;49.794;18.258;2022-08-21T05:29:17;2.20;;;0.88;;
65156;SDS011;52745;49.794;18.258;2022-08-21T05:31:44;2.30;;;0.65;;
65156;SDS011;52745;49.794;18.258;2022-08-21T05:34:11;1.55;;;0.70;;
65156;SDS011;52745;49.794;18.258;2022-08-21T05:36:38;1.52;;;0.68;;
65156;SDS011;52745;49.794;18.258;2022-08-21T05:39:05;2.17;;;0.50;;
65156;SDS011;52745;49.794;18.258;2022-08-21T05:41:31;2.10;;;0.50;;
65156;SDS011;52745;49.794;18.258;2022-08-21T05:43:58;12.15;;;8.82;;
65156;SDS011;52745;49.794;18.258;2022-08-21T05:46:25;24.17;;;17.25;;
65156;SDS011;52745;49.794;18.258;2022-08-21T05:48:52;1.70;;;1.10;;
65156;SDS011;52745;49.794;18.258;2022-08-21T05:51:19;1.65;;;0.88;;
65156;SDS011;52745;49.794;18.258;2022-08-21T05:53:45;1.52;;;0.77;;
65156;SDS011;52745;49.794;18.258;2022-08-21T05:56:12;2.15;;;0.70;;
65156;SDS011;52745;49.794;18.258;2022-08-21T05:58:39;2.33;;;0.80;;
65156;SDS011;52745;49.794;18.258;2022-08-21T06:01:06;2.45;;;0.80;;
65156;SDS011;52745;49.794;18.258;2022-08-21T06:03:35;10.32;;;6.35;;
65156;SDS011;52745;49.794;18.258;2022-08-21T06:06:04;40.38;;;26.08;;
65156;SDS011;52745;49.794;18.258;2022-08-21T06:08:31;3.58;;;1.20;;
65156;SDS011;52745;49.794;18.258;2022-08-21T06:10:59;2.13;;;0.70;;
65156;SDS011;52745;49.794;18.258;2022-08-21T06:13:27;1.33;;;0.75;;
65156;SDS011;52745;49.794;18.258;2022-08-21T06:16:07;3.85;;;0.80;;
65156;SDS011;52745;49.794;18.258;2022-08-21T06:18:36;2.08;;;0.80;;
65156;SDS011;52745;49.794;18.258;2022-08-21T06:21:04;2.85;;;0.70;;
65156;SDS011;52745;49.794;18.258;2022-08-21T06:23:31;1.23;;;0.77;;
65156;SDS011;52745;49.794;18.258;2022-08-21T06:25:58;0.70;;;0.60;;
65156;SDS011;52745;49.794;18.258;2022-08-21T06:28:26;3.08;;;0.80;;
65156;SDS011;52745;49.794;18.258;2022-08-21T06:30:52;1.23;;;0.52;;
65156;SDS011;52745;49.794;18.258;2022-08-21T06:33:19;2.50;;;0.50;;
65156;SDS011;52745;49.794;18.258;2022-08-21T06:35:45;0.63;;;0.50;;
65156;SDS011;52745;49.794;18.258;2022-08-21T06:38:12;4.20;;;0.70;;
65156;SDS011;52745;49.794;18.258;2022-08-21T06:40:38;3.72;;;0.60;;
65156;SDS011;52745;49.794;18.258;2022-08-21T06:43:09;9.55;;;1.95;;
65156;SDS011;52745;49.794;18.258;2022-08-21T06:45:37;8.95;;;2.10;;
65156;SDS011;52745;49.794;18.258;2022-08-21T06:48:04;2.33;;;0.90;;
65156;SDS011;52745;49.794;18.258;2022-08-21T06:50:33;2.10;;;0.68;;
65156;SDS011;52745;49.794;18.258;2022-08-21T06:53:08;1.83;;;0.55;;
65156;SDS011;52745;49.794;18.258;2022-08-21T06:55:37;3.67;;;0.70;;
65156;SDS011;52745;49.794;18.258;2022-08-21T06:58:05;2.20;;;0.57;;
65156;SDS011;52745;49.794;18.258;2022-08-21T07:00:32;1.10;;;0.40;;
65156;SDS011;52745;49.794;18.258;2022-08-21T07:02:59;0.65;;;0.40;;
65156;SDS011;52745;49.794;18.258;2022-08-21T07:05:26;1.83;;;0.47;;
65156;SDS011;52745;49.794;18.258;2022-08-21T07:07:54;1.75;;;0.35;;
65156;SDS011;52745;49.794;18.258;2022-08-21T07:10:21;3.35;;;0.43;;
65156;SDS011;52745;49.794;18.258;2022-08-21T07:12:47;1.02;;;0.40;;
65156;SDS011;52745;49.794;18.258;2022-08-21T07:15:14;2.22;;;0.50;;
65156;SDS011;52745;49.794;18.258;2022-08-21T07:17:41;2.63;;;0.50;;
65156;SDS011;52745;49.794;18.258;2022-08-21T07:20:07;0.73;;;0.50;;
65156;SDS011;52745;49.794;18.258;2022-08-21T07:22:35;1.73;;;0.70;;
65156;SDS011;52745;49.794;18.258;2022-08-21T07:25:04;0.68;;;0.40;;
65156;SDS011;52745;49.794;18.258;2022-08-21T07:27:32;0.60;;;0.50;;
65156;SDS011;52745;49.794;18.258;2022-08-21T07:29:58;0.70;;;0.55;;
65156;SDS011;52745;49.794;18.258;2022-08-21T07:32:25;13.02;;;0.90;;
65156;SDS011;52745;49.794;18.258;2022-08-21T07:34:51;0.82;;;0.35;;
65156;SDS011;52745;49.794;18.258;2022-08-21T07:37:18;1.00;;;0.50;;
65156;SDS011;52745;49.794;18.258;2022-08-21T07:39:44;0.63;;;0.40;;
65156;SDS011;52745;49.794;18.258;2022-08-21T07:42:14;4.90;;;0.45;;
65156;SDS011;52745;49.794;18.258;2022-08-21T07:44:42;1.63;;;1.00;;
65156;SDS011;52745;49.794;18.258;2022-08-21T07:47:09;0.95;;;0.32;;
65156;SDS011;52745;49.794;18.258;2022-08-21T07:49:36;0.38;;;0.38;;
65156;SDS011;52745;49.794;18.258;2022-08-21T07:52:02;0.40;;;0.30;;
65156;SDS011;52745;49.794;18.258;2022-08-21T07:54:29;0.45;;;0.40;;
65156;SDS011;52745;49.794;18.258;2022-08-21T07:56:56;3.90;;;1.23;;
65156;SDS011;52745;49.794;18.258;2022-08-21T07:59:22;0.55;;;0.40;;
65156;SDS011;52745;49.794;18.258;2022-08-21T08:01:49;1.58;;;0.30;;
65156;SDS011;52745;49.794;18.258;2022-08-21T08:04:15;0.40;;;0.32;;
65156;SDS011;52745;49.794;18.258;2022-08-21T08:06:42;1.73;;;0.22;;
65156;SDS011;52745;49.794;18.258;2022-08-21T08:09:08;1.98;;;0.30;;
65156;SDS011;52745;49.794;18.258;2022-08-21T08:11:36;0.32;;;0.20;;
65156;SDS011;52745;49.794;18.258;2022-08-21T08:14:05;0.52;;;0.40;;
65156;SDS011;52745;49.794;18.258;2022-08-21T08:16:32;0.32;;;0.20;;
65156;SDS011;52745;49.794;18.258;2022-08-21T08:18:58;0.63;;;0.30;;
65156;SDS011;52745;49.794;18.258;2022-08-21T08:21:25;0.20;;;0.20;;
65156;SDS011;52745;49.794;18.258;2022-08-21T08:23:52;0.40;;;0.30;;
65156;SDS011;52745;49.794;18.258;2022-08-21T08:26:19;0.47;;;0.30;;
65156;SDS011;52745;49.794;18.258;2022-08-21T08:28:45;0.50;;;0.32;;
65156;SDS011;52745;49.794;18.258;2022-08-21T08:31:14;1.38;;;0.47;;
65156;SDS011;52745;49.794;18.258;2022-08-21T08:33:40;6.50;;;0.60;;
65156;SDS011;52745;49.794;18.258;2022-08-21T08:36:12;0.60;;;0.30;;
65156;SDS011;52745;49.794;18.258;2022-08-21T08:38:41;0.32;;;0.30;;
65156;SDS011;52745;49.794;18.258;2022-08-21T08:41:14;0.35;;;0.30;;
65156;SDS011;52745;49.794;18.258;2022-08-21T08:43:49;1.85;;;0.50;;
65156;SDS011;52745;49.794;18.258;2022-08-21T08:46:20;2.80;;;0.30;;
65156;SDS011;52745;49.794;18.258;2022-08-21T08:49:29;1.85;;;0.40;;
65156;SDS011;52745;49.794;18.258;2022-08-21T08:52:05;3.15;;;0.60;;
65156;SDS011;52745;49.794;18.258;2022-08-21T08:54:42;0.77;;;0.38;;
65156;SDS011;52745;49.794;18.258;2022-08-21T08:57:19;1.00;;;0.60;;
65156;SDS011;52745;49.794;18.258;2022-08-21T08:59:53;1.33;;;0.60;;
65156;SDS011;52745;49.794;18.258;2022-08-21T09:02:22;0.50;;;0.43;;
65156;SDS011;52745;49.794;18.258;2022-08-21T09:04:54;0.98;;;0.55;;
65156;SDS011;52745;49.794;18.258;2022-08-21T09:11:11;2.58;;;0.50;;
65156;SDS011;52745;49.794;18.258;2022-08-21T09:13:50;3.65;;;1.85;;
65156;SDS011;52745;49.794;18.258;2022-08-21T09:25:34;5.28;;;1.70;;
65156;SDS011;52745;49.794;18.258;2022-08-21T09:28:26;2.85;;;1.30;;
65156;SDS011;52745;49.794;18.258;2022-08-21T09:30:54;4.50;;;1.00;;
65156;SDS011;52745;49.794;18.258;2022-08-21T09:33:22;6.47;;;1.63;;
65156;SDS011;52745;49.794;18.258;2022-08-21T09:35:53;3.35;;;1.00;;
65156;SDS011;52745;49.794;18.258;2022-08-21T09:41:03;1.88;;;0.70;;
65156;SDS011;52745;49.794;18.258;2022-08-21T09:43:32;1.70;;;0.82;;
65156;SDS011;52745;49.794;18.258;2022-08-21T09:48:44;0.52;;;0.30;;
65156;SDS011;52745;49.794;18.258;2022-08-21T09:51:35;0.35;;;0.30;;
65156;SDS011;52745;49.794;18.258;2022-08-21T09:59:38;1.05;;;0.50;;
65156;SDS011;52745;49.794;18.258;2022-08-21T10:05:15;1.02;;;0.50;;
65156;SDS011;52745;49.794;18.258;2022-08-21T10:07:42;3.40;;;2.40;;
65156;SDS011;52745;49.794;18.258;2022-08-21T10:10:16;3.72;;;2.60;;
65156;SDS011;52745;49.794;18.258;2022-08-21T10:35:55;2.17;;;1.00;;
65156;SDS011;52745;49.794;18.258;2022-08-21T10:49:37;2.53;;;1.40;;
65156;SDS011;52745;49.794;18.258;2022-08-21T10:55:02;10.05;;;3.20;;
65156;SDS011;52745;49.794;18.258;2022-08-21T10:57:33;2.15;;;1.50;;
65156;SDS011;52745;49.794;18.258;2022-08-21T11:00:11;3.25;;;1.80;;
65156;SDS011;52745;49.794;18.258;2022-08-21T11:05:28;4.45;;;1.92;;
65156;SDS011;52745;49.794;18.258;2022-08-21T11:19:05;4.78;;;2.40;;
65156;SDS011;52745;49.794;18.258;2022-08-21T11:21:52;3.45;;;2.28;;
65156;SDS011;52745;49.794;18.258;2022-08-21T11:27:23;5.63;;;2.38;;
65156;SDS011;52745;49.794;18.258;2022-08-21T11:29:56;3.15;;;2.00;;
65156;SDS011;52745;49.794;18.258;2022-08-21T11:48:40;4.47;;;2.00;;
65156;SDS011;52745;49.794;18.258;2022-08-21T11:51:33;3.97;;;1.95;;
65156;SDS011;52745;49.794;18.258;2022-08-21T11:54:07;2.38;;;2.17;;
65156;SDS011;52745;49.794;18.258;2022-08-21T11:56:38;2.75;;;2.17;;
65156;SDS011;52745;49.794;18.258;2022-08-21T11:59:13;2.53;;;2.00;;
65156;SDS011;52745;49.794;18.258;2022-08-21T12:01:50;2.60;;;2.00;;
65156;SDS011;52745;49.794;18.258;2022-08-21T12:06:52;3.30;;;2.40;;
65156;SDS011;52745;49.794;18.258;2022-08-21T12:09:30;3.33;;;2.30;;
65156;SDS011;52745;49.794;18.258;2022-08-21T12:14:51;4.03;;;2.22;;
65156;SDS011;52745;49.794;18.258;2022-08-21T12:17:40;3.30;;;2.50;;
65156;SDS011;52745;49.794;18.258;2022-08-21T12:22:54;3.85;;;2.42;;
65156;SDS011;52745;49.794;18.258;2022-08-21T12:25:40;5.13;;;2.30;;
65156;SDS011;52745;49.794;18.258;2022-08-21T12:28:09;4.38;;;2.78;;
65156;SDS011;52745;49.794;18.258;2022-08-21T12:30:43;3.45;;;2.40;;
65156;SDS011;52745;49.794;18.258;2022-08-21T12:36:07;3.88;;;2.75;;
65156;SDS011;52745;49.794;18.258;2022-08-21T12:41:30;4.53;;;3.10;;
65156;SDS011;52745;49.794;18.258;2022-08-21T12:44:12;5.68;;;3.40;;
65156;SDS011;52745;49.794;18.258;2022-08-21T12:46:48;5.57;;;3.55;;
65156;SDS011;52745;49.794;18.258;2022-08-21T12:52:16;5.18;;;3.13;;
65156;SDS011;52745;49.794;18.258;2022-08-21T12:54:47;3.60;;;2.40;;
65156;SDS011;52745;49.794;18.258;2022-08-21T12:57:21;3.65;;;2.80;;
65156;SDS011;52745;49.794;18.258;2022-08-21T12:59:52;3.25;;;2.92;;
65156;SDS011;52745;49.794;18.258;2022-08-21T13:02:32;3.92;;;2.90;;
65156;SDS011;52745;49.794;18.258;2022-08-21T13:05:06;4.53;;;3.25;;
65156;SDS011;52745;49.794;18.258;2022-08-21T13:07:37;5.13;;;3.20;;
65156;SDS011;52745;49.794;18.258;2022-08-21T13:10:05;3.97;;;2.90;;
65156;SDS011;52745;49.794;18.258;2022-08-21T13:12:40;3.90;;;2.85;;
65156;SDS011;52745;49.794;18.258;2022-08-21T13:15:08;5.05;;;3.20;;
65156;SDS011;52745;49.794;18.258;2022-08-21T13:17:36;3.95;;;3.20;;
65156;SDS011;52745;49.794;18.258;2022-08-21T13:20:24;8.60;;;4.85;;
65156;SDS011;52745;49.794;18.258;2022-08-21T13:22:53;4.28;;;2.92;;
65156;SDS011;52745;49.794;18.258;2022-08-21T13:25:21;5.30;;;3.08;;
65156;SDS011;52745;49.794;18.258;2022-08-21T13:27:57;3.17;;;2.60;;
65156;SDS011;52745;49.794;18.258;2022-08-21T13:30:24;4.32;;;2.40;;
65156;SDS011;52745;49.794;18.258;2022-08-21T13:32:52;3.75;;;2.53;;
65156;SDS011;52745;49.794;18.258;2022-08-21T13:35:27;3.45;;;2.53;;
65156;SDS011;52745;49.794;18.258;2022-08-21T13:38:03;5.53;;;2.80;;
65156;SDS011;52745;49.794;18.258;2022-08-21T13:40:32;3.58;;;2.40;;
65156;SDS011;52745;49.794;18.258;2022-08-21T13:43:10;6.43;;;2.88;;
65156;SDS011;52745;49.794;18.258;2022-08-21T13:45:42;5.00;;;2.40;;
65156;SDS011;52745;49.794;18.258;2022-08-21T13:48:10;4.93;;;2.30;;
65156;SDS011;52745;49.794;18.258;2022-08-21T13:50:38;5.05;;;2.53;;
65156;SDS011;52745;49.794;18.258;2022-08-21T13:53:07;4.18;;;2.50;;
65156;SDS011;52745;49.794;18.258;2022-08-21T13:55:53;3.35;;;2.45;;
65156;SDS011;52745;49.794;18.258;2022-08-21T13:58:28;3.67;;;2.72;;
65156;SDS011;52745;49.794;18.258;2022-08-21T14:00:57;3.22;;;2.40;;
65156;SDS011;52745;49.794;18.258;2022-08-21T14:03:41;5.47;;;2.58;;
65156;SDS011;52745;49.794;18.258;2022-08-21T14:06:11;3.45;;;2.50;;
65156;SDS011;52745;49.794;18.258;2022-08-21T14:08:40;3.88;;;2.92;;
65156;SDS011;52745;49.794;18.258;2022-08-21T14:11:13;4.07;;;2.67;;
65156;SDS011;52745;49.794;18.258;2022-08-21T14:13:40;6.25;;;2.85;;
65156;SDS011;52745;49.794;18.258;2022-08-21T14:16:17;4.43;;;2.70;;
65156;SDS011;52745;49.794;18.258;2022-08-21T14:21:31;4.80;;;2.60;;
65156;SDS011;52745;49.794;18.258;2022-08-21T14:24:04;4.60;;;2.80;;
65156;SDS011;52745;49.794;18.258;2022-08-21T14:27:01;4.32;;;2.92;;
65156;SDS011;52745;49.794;18.258;2022-08-21T14:29:35;7.43;;;3.20;;
65156;SDS011;52745;49.794;18.258;2022-08-21T14:32:27;3.97;;;2.83;;
65156;SDS011;52745;49.794;18.258;2022-08-21T14:34:56;6.80;;;2.63;;
65156;SDS011;52745;49.794;18.258;2022-08-21T14:37:24;4.55;;;2.90;;
65156;SDS011;52745;49.794;18.258;2022-08-21T14:39:51;6.68;;;3.55;;
65156;SDS011;52745;49.794;18.258;2022-08-21T14:42:18;4.57;;;2.95;;
65156;SDS011;52745;49.794;18.258;2022-08-21T14:44:46;5.57;;;3.15;;
65156;SDS011;52745;49.794;18.258;2022-08-21T14:47:13;5.78;;;3.05;;
65156;SDS011;52745;49.794;18.258;2022-08-21T14:49:39;8.15;;;3.25;;
65156;SDS011;52745;49.794;18.258;2022-08-21T14:52:07;6.47;;;3.50;;
65156;SDS011;52745;49.794;18.258;2022-08-21T14:54:33;6.35;;;3.25;;
65156;SDS011;52745;49.794;18.258;2022-08-21T14:57:05;11.10;;;6.80;;
65156;SDS011;52745;49.794;18.258;2022-08-21T14:59:34;10.95;;;8.32;;
65156;SDS011;52745;49.794;18.258;2022-08-21T15:02:02;39.50;;;21.98;;
65156;SDS011;52745;49.794;18.258;2022-08-21T15:04:32;5.70;;;3.53;;
65156;SDS011;52745;49.794;18.258;2022-08-21T15:07:00;8.82;;;3.53;;
65156;SDS011;52745;49.794;18.258;2022-08-21T15:09:27;5.55;;;3.17;;
65156;SDS011;52745;49.794;18.258;2022-08-21T15:11:55;9.20;;;3.20;;
65156;SDS011;52745;49.794;18.258;2022-08-21T15:14:25;9.80;;;3.65;;
65156;SDS011;52745;49.794;18.258;2022-08-21T15:16:53;6.43;;;3.55;;
65156;SDS011;52745;49.794;18.258;2022-08-21T15:19:20;6.28;;;3.83;;
65156;SDS011;52745;49.794;18.258;2022-08-21T15:21:47;7.45;;;3.42;;
65156;SDS011;52745;49.794;18.258;2022-08-21T15:24:14;9.13;;;3.70;;
65156;SDS011;52745;49.794;18.258;2022-08-21T15:26:41;6.45;;;3.60;;
65156;SDS011;52745;49.794;18.258;2022-08-21T15:29:09;7.65;;;3.40;;
65156;SDS011;52745;49.794;18.258;2022-08-21T15:31:37;5.93;;;3.20;;
65156;SDS011;52745;49.794;18.258;2022-08-21T15:34:18;7.47;;;3.40;;
65156;SDS011;52745;49.794;18.258;2022-08-21T15:36:45;6.53;;;3.08;;
65156;SDS011;52745;49.794;18.258;2022-08-21T15:39:11;6.00;;;2.90;;
65156;SDS011;52745;49.794;18.258;2022-08-21T15:41:38;5.78;;;2.80;;
65156;SDS011;52745;49.794;18.258;2022-08-21T15:44:05;5.80;;;2.67;;
65156;SDS011;52745;49.794;18.258;2022-08-21T15:46:31;7.68;;;3.42;;
65156;SDS011;52745;49.794;18.258;2022-08-21T15:48:58;5.03;;;3.00;;
65156;SDS011;52745;49.794;18.258;2022-08-21T15:51:25;6.55;;;3.10;;
65156;SDS011;52745;49.794;18.258;2022-08-21T15:53:51;4.97;;;2.92;;
65156;SDS011;52745;49.794;18.258;2022-08-21T15:56:23;4.75;;;2.85;;
65156;SDS011;52745;49.794;18.258;2022-08-21T15:58:52;5.07;;;2.65;;
65156;SDS011;52745;49.794;18.258;2022-08-21T16:01:23;16.27;;;8.68;;
65156;SDS011;52745;49.794;18.258;2022-08-21T16:03:50;48.20;;;32.05;;
65156;SDS011;52745;49.794;18.258;2022-08-21T16:06:20;13.48;;;7.78;;
65156;SDS011;52745;49.794;18.258;2022-08-21T16:08:47;3.13;;;2.30;;
65156;SDS011;52745;49.794;18.258;2022-08-21T16:11:14;7.40;;;2.88;;
65156;SDS011;52745;49.794;18.258;2022-08-21T16:13:44;4.88;;;2.80;;
65156;SDS011;52745;49.794;18.258;2022-08-21T16:16:12;7.05;;;2.58;;
65156;SDS011;52745;49.794;18.258;2022-08-21T16:18:43;4.45;;;2.97;;
65156;SDS011;52745;49.794;18.258;2022-08-21T16:21:10;5.13;;;2.35;;
65156;SDS011;52745;49.794;18.258;2022-08-21T16:23:37;4.15;;;3.00;;
65156;SDS011;52745;49.794;18.258;2022-08-21T16:26:04;6.40;;;2.78;;
65156;SDS011;52745;49.794;18.258;2022-08-21T16:28:33;7.85;;;3.35;;
65156;SDS011;52745;49.794;18.258;2022-08-21T16:31:02;6.93;;;3.67;;
65156;SDS011;52745;49.794;18.258;2022-08-21T16:33:33;7.57;;;3.35;;
65156;SDS011;52745;49.794;18.258;2022-08-21T16:36:00;5.30;;;3.40;;
65156;SDS011;52745;49.794;18.258;2022-08-21T16:38:28;5.10;;;3.33;;